Startpagina
METAR-TAF:

METAR-TAF

Vliegvelden :

Nouméa / La Tontouta, Nieuw-Caledonië

breedte: 22-01S, lengte: 166-13E, hoogte: 16 m

Actueel weer

Dit bericht is 24 minuten geleden gemaakt, om 17:00 UTC
Weinig wind
Temperatuur 23°C
Vochtigheid 83%
Druk 1009 hPa
Zicht 10 km of meer
Gebroken wolken op 5200 ft

METAR: NWWW 261700Z AUTO 00000KT 9999 BKN052 23/20 Q1009 NOSIG

Tijdstip: 04:24 (17:24 UTC)

Verwachting

Dit bericht is 6 uur en het 24 minuten geleden gemaakt, om 11:00 UTC
Verwachting geldig van 26 om 12 UTC tot 27 om 12 UTC
Wind 2 kt uit variabele richting
Zicht 10 km of meer
Weinig wolken op 5000 ft
Wijzigt naar
van 26 om 22 UTC tot 26 om 24 UTC
Wind 10 kt uit het zuiden
Kans 40% :
Tijdelijke
van 27 om 00 UTC tot 27 om 06 UTC
Zicht: 4000 m
Verspreide wolken op 2500 ft, Stapelwolken.
regenbuien

TAF: NWWW 261100Z 2612/2712 VRB02KT 9999 FEW050 BECMG 2622/2624 18010KT PROB40 TEMPO 2700/2706 4000 SHRA SCT025TCU

Waarnemingen en weersverwachtingen van meer dan 4000 vliegvelden (METAR en TAF).

De beschikbare stations zijn de gele en rode punten op de kaart.

Ga met uw muis naar het station om de naam te zien.

Klik dan om waarnemingen en weersverwachtingen te zien.

kaart wijzigen: klik op de groene knoppen met een zwart kruis om in te zoomen, op de groene knop met een streepje om uit te zoomen of op de groene pijlen voor aangrenzende kaarten.


METAR-TAF: